1876 Tropical Storm NOT_NAMED (1876231N14303)


IBTrACS version v04r00. Visit IBTrACS website for data access.
Please direct all questions to the IBTrACS Q and A forum

Storm track - Intensity - Wind Radii - Intensity Data - Source Data - All data

Summary Information

Storm ID 1876231N14303
Start Aug 17 12Z
Landfall Aug 21 00Z, Aug 22 03Z
Max Intensity 55 kt (Aug 18 06Z)
End Aug 25 12Z
ATCF IDs
Track status Best track data.

Storm track plot

Map of storm track

Intensity plots

Map of storm track

Radial wind information

No radial wind information for this storm


Position and Intensity Table

BASIN ISO_TIME_________ NATURE LAT LON MLC WIND
degrees north degrees east kts
NA 1876-08-17 12:00:00 TS 13.60 -57.50 40
NA 15:00:00 TS 13.75 -58.00 42
NA 18:00:00 TS 13.90 -58.50 45
NA 21:00:00 TS 14.05 -59.00 47
NA 1876-08-18 00:00:00 TS 14.20 -59.50 50
NA 03:00:00 TS 14.35 -60.00 52
NA 06:00:00 TS 14.50 -60.50 55
NA 09:00:00 TS 14.65 -61.00 55
NA 12:00:00 TS 14.80 -61.50 55
NA 15:00:00 TS 14.95 -62.00 55
NA 18:00:00 TS 15.10 -62.50 55
NA 21:00:00 TS 15.25 -63.00 55
NA 1876-08-19 00:00:00 TS 15.40 -63.50 55
NA 03:00:00 TS 15.56 -64.00 55
NA 06:00:00 TS 15.70 -64.50 55
NA 09:00:00 TS 15.79 -65.00 50
NA 12:00:00 TS 15.90 -65.50 45
NA 15:00:00 TS 16.08 -66.00 45
NA 18:00:00 TS 16.30 -66.50 45
NA 21:00:00 TS 16.50 -67.00 45
NA 1876-08-20 00:00:00 TS 16.70 -67.50 45
NA 03:00:00 TS 16.90 -68.00 40
NA 06:00:00 TS 17.10 -68.50 35
NA 09:00:00 TS 17.30 -69.01 35
NA 12:00:00 TS 17.50 -69.50 35
NA 15:00:00 TS 17.70 -69.97 35
NA 18:00:00 TS 17.90 -70.40 35
NA 21:00:00 TS 18.10 -70.81 32
NA 1876-08-21 00:00:00 TS 18.30 -71.20 30
NA 03:00:00 TS 18.50 -71.60 30
NA 06:00:00 TS 18.70 -72.00 30
NA 09:00:00 TS 18.89 -72.41 30
NA 12:00:00 TS 19.10 -72.80 30
NA 15:00:00 TS 19.34 -73.16 30
NA 18:00:00 TS 19.60 -73.50 30
NA 21:00:00 TS 19.85 -73.85 32
NA 1876-08-22 00:00:00 TS 20.10 -74.20 35
NA 03:00:00 TS 20.36 -74.56 35
NA 06:00:00 TS 20.60 -74.90 35
NA 09:00:00 TS 20.81 -75.22 35
NA 12:00:00 TS 21.00 -75.50 35
NA 15:00:00 TS 21.20 -75.76 35
NA 18:00:00 TS 21.40 -76.00 35
NA 21:00:00 TS 21.60 -76.25 35
NA 1876-08-23 00:00:00 TS 21.80 -76.50 35
NA 03:00:00 TS 22.01 -76.75 35
NA 06:00:00 TS 22.20 -77.00 35
NA 09:00:00 TS 22.35 -77.26 35
NA 12:00:00 TS 22.50 -77.50 35
NA 15:00:00 TS 22.69 -77.71 35
NA 18:00:00 TS 22.90 -77.90 35
NA 21:00:00 TS 23.10 -78.10 35
NA 1876-08-24 00:00:00 TS 23.30 -78.30 35
NA 03:00:00 TS 23.51 -78.51 35
NA 06:00:00 TS 23.70 -78.70 35
NA 09:00:00 TS 23.89 -78.84 35
NA 12:00:00 TS 24.00 -79.00 35
NA 15:00:00 TS 23.93 -79.24 35
NA 18:00:00 TS 23.80 -79.50 35
NA 21:00:00 TS 23.74 -79.75 32
NA 1876-08-25 00:00:00 TS 23.70 -80.00 30
NA 03:00:00 TS 23.65 -80.25 30
NA 06:00:00 TS 23.60 -80.50 30
NA 09:00:00 TS 23.55 -80.75 27
NA 12:00:00 ET 23.50 -81.00 25

Source Information

Agency Information
USA
TOKYO
CMA
HKO
NEWDELHI
REUNION
BOM
NADI
WELLINGTON
DS824
TD9636
TD9635
NEUMANN
MLC

All available IBTrACS Data

SEASON BASIN SUBBASIN ISO_TIME_________ NATURE LAT LON DIST2LAND LANDFALL IFLAG USA SSHS MLC LAT MLC LON MLC CLASS MLC WIND STORM SPEED STORM DIR
Year degrees north degrees east km km 1 degrees north degrees east kts kts degrees
1876 NA NA 1876-08-17 12:00:00 TS 13.60 -57.50 500 468 _____________O -1 13.60 -57.50 TS 40 10 287
1876 NA NA 15:00:00 TS 13.75 -58.00 476 449 _____________P -1 13.75 -58.00 TS 42 10 287
1876 NA NA 18:00:00 TS 13.90 -58.50 449 428 _____________O -1 13.90 -58.50 TS 45 10 287
1876 NA NA 21:00:00 TS 14.05 -59.00 428 423 _____________P -1 14.05 -59.00 TS 47 10 287
1876 NA NA 1876-08-18 00:00:00 TS 14.20 -59.50 424 416 _____________O -1 14.20 -59.50 TS 50 10 287
1876 NA CS 03:00:00 TS 14.35 -60.00 417 417 _____________P -1 14.35 -60.00 TS 52 10 287
1876 NA CS 06:00:00 TS 14.50 -60.50 428 426 _____________O -1 14.50 -60.50 TS 55 10 287
1876 NA CS 09:00:00 TS 14.65 -61.00 436 436 _____________P -1 14.65 -61.00 TS 55 10 287
1876 NA CS 12:00:00 TS 14.80 -61.50 459 459 _____________O -1 14.80 -61.50 TS 55 10 287
1876 NA CS 15:00:00 TS 14.95 -62.00 470 470 _____________P -1 14.95 -62.00 TS 55 10 287
1876 NA CS 18:00:00 TS 15.10 -62.50 478 432 _____________O -1 15.10 -62.50 TS 55 10 287
1876 NA CS 21:00:00 TS 15.25 -63.00 432 380 _____________P -1 15.25 -63.00 TS 55 10 287
1876 NA CS 1876-08-19 00:00:00 TS 15.40 -63.50 380 339 _____________O -1 15.40 -63.50 TS 55 10 288
1876 NA CS 03:00:00 TS 15.56 -64.00 329 292 _____________P -1 15.56 -64.00 TS 55 10 287
1876 NA CS 06:00:00 TS 15.70 -64.50 292 260 _____________O -1 15.70 -64.50 TS 55 10 284
1876 NA CS 09:00:00 TS 15.79 -65.00 260 235 _____________P -1 15.79 -65.00 TS 50 10 282
1876 NA CS 12:00:00 TS 15.90 -65.50 235 202 _____________O -1 15.90 -65.50 TS 45 10 287
1876 NA CS 15:00:00 TS 16.08 -66.00 202 180 _____________P -1 16.08 -66.00 TS 45 10 293
1876 NA CS 18:00:00 TS 16.30 -66.50 181 156 _____________O -1 16.30 -66.50 TS 45 10 293
1876 NA CS 21:00:00 TS 16.50 -67.00 157 135 _____________P -1 16.50 -67.00 TS 45 10 293
1876 NA CS 1876-08-20 00:00:00 TS 16.70 -67.50 138 130 _____________O -1 16.70 -67.50 TS 45 10 293
1876 NA CS 03:00:00 TS 16.90 -68.00 140 123 _____________P -1 16.90 -68.00 TS 40 10 293
1876 NA CS 06:00:00 TS 17.10 -68.50 123 101 _____________O -1 17.10 -68.50 TS 35 10 293
1876 NA CS 09:00:00 TS 17.30 -69.01 102 94 _____________P -1 17.30 -69.01 TS 35 10 293
1876 NA CS 12:00:00 TS 17.50 -69.50 101 64 _____________O -1 17.50 -69.50 TS 35 10 294
1876 NA CS 15:00:00 TS 17.70 -69.97 59 33 _____________P -1 17.70 -69.97 TS 35 9 295
1876 NA CS 18:00:00 TS 17.90 -70.40 33 22 _____________O -1 17.90 -70.40 TS 35 9 297
1876 NA CS 21:00:00 TS 18.10 -70.81 24 0 _____________P -1 18.10 -70.81 TS 32 9 298
1876 NA NA 1876-08-21 00:00:00 TS 18.30 -71.20 0 0 _____________O -1 18.30 -71.20 TD 30 9 298
1876 NA NA 03:00:00 TS 18.50 -71.60 0 0 _____________P -1 18.50 -71.60 TD 30 9 298
1876 NA NA 06:00:00 TS 18.70 -72.00 0 0 _____________O -1 18.70 -72.00 TD 30 9 297
1876 NA NA 09:00:00 TS 18.89 -72.41 0 0 _____________P -1 18.89 -72.41 TD 30 9 298
1876 NA CS 12:00:00 TS 19.10 -72.80 10 10 _____________O -1 19.10 -72.80 TD 30 8 302
1876 NA CS 15:00:00 TS 19.34 -73.16 33 0 _____________P -1 19.34 -73.16 TD 30 8 307
1876 NA CS 18:00:00 TS 19.60 -73.50 10 10 _____________O -1 19.60 -73.50 TD 30 8 308
1876 NA CS 21:00:00 TS 19.85 -73.85 43 10 _____________P -1 19.85 -73.85 TD 32 8 307
1876 NA NA 1876-08-22 00:00:00 TS 20.10 -74.20 10 0 _____________O -1 20.10 -74.20 TS 35 8 307
1876 NA NA 03:00:00 TS 20.36 -74.56 0 0 _____________P -1 20.36 -74.56 TS 35 8 307
1876 NA NA 06:00:00 TS 20.60 -74.90 0 0 _____________O -1 20.60 -74.90 TS 35 8 306
1876 NA NA 09:00:00 TS 20.81 -75.22 22 10 _____________P -1 20.81 -75.22 TS 35 7 306
1876 NA NA 12:00:00 TS 21.00 -75.50 10 0 _____________O -1 21.00 -75.50 TS 35 6 308
1876 NA NA 15:00:00 TS 21.20 -75.76 22 22 _____________P -1 21.20 -75.76 TS 35 6 311
1876 NA NA 18:00:00 TS 21.40 -76.00 30 24 _____________O -1 21.40 -76.00 TS 35 6 311
1876 NA NA 21:00:00 TS 21.60 -76.25 44 44 _____________P -1 21.60 -76.25 TS 35 6 311
1876 NA NA 1876-08-23 00:00:00 TS 21.80 -76.50 59 46 _____________O -1 21.80 -76.50 TS 35 6 311
1876 NA NA 03:00:00 TS 22.01 -76.75 45 45 _____________P -1 22.01 -76.75 TS 35 6 311
1876 NA NA 06:00:00 TS 22.20 -77.00 56 55 _____________O -1 22.20 -77.00 TS 35 6 306
1876 NA NA 09:00:00 TS 22.35 -77.26 67 67 _____________P -1 22.35 -77.26 TS 35 6 303
1876 NA NA 12:00:00 TS 22.50 -77.50 73 69 _____________O -1 22.50 -77.50 TS 35 5 310
1876 NA NA 15:00:00 TS 22.69 -77.71 84 76 _____________P -1 22.69 -77.71 TS 35 5 317
1876 NA NA 18:00:00 TS 22.90 -77.90 84 84 _____________O -1 22.90 -77.90 TS 35 5 318
1876 NA NA 21:00:00 TS 23.10 -78.10 94 94 _____________P -1 23.10 -78.10 TS 35 5 318
1876 NA NA 1876-08-24 00:00:00 TS 23.30 -78.30 105 93 _____________O -1 23.30 -78.30 TS 35 6 318
1876 NA NA 03:00:00 TS 23.51 -78.51 93 90 _____________P -1 23.51 -78.51 TS 35 5 318
1876 NA NA 06:00:00 TS 23.70 -78.70 90 82 _____________O -1 23.70 -78.70 TS 35 5 322
1876 NA NA 09:00:00 TS 23.89 -78.84 82 78 _____________P -1 23.89 -78.84 TS 35 4 318
1876 NA NA 12:00:00 TS 24.00 -79.00 84 84 _____________O -1 24.00 -79.00 TS 35 4 276
1876 NA NA 15:00:00 TS 23.93 -79.24 105 105 _____________P -1 23.93 -79.24 TS 35 5 246
1876 NA NA 18:00:00 TS 23.80 -79.50 112 94 _____________O -1 23.80 -79.50 TS 35 5 248
1876 NA NA 21:00:00 TS 23.74 -79.75 94 89 _____________P -1 23.74 -79.75 TS 32 5 258
1876 NA NA 1876-08-25 00:00:00 TS 23.70 -80.00 89 84 _____________O -1 23.70 -80.00 TD 30 5 259
1876 NA NA 03:00:00 TS 23.65 -80.25 73 67 _____________P -1 23.65 -80.25 TD 30 5 258
1876 NA NA 06:00:00 TS 23.60 -80.50 67 67 _____________O -1 23.60 -80.50 TD 30 5 258
1876 NA NA 09:00:00 TS 23.55 -80.75 67 54 _____________P -1 23.55 -80.75 TD 27 5 258
1876 NA NA 12:00:00 ET 23.50 -81.00 54 _____________O -1 23.50 -81.00 EX 25 5 258